Time;durP1;ratioP1;P1;durP2;ratioP2;P2;SDS_P1;SDS_P2;PMS_P1;PMS_P2;Temp;Humidity;BMP_temperature;BMP_pressure;BME280_temperature;BME280_humidity;BME280_pressure;Samples;Min_cycle;Max_cycle;Signal;HPM_P1;HPM_P2
2022/10/01 00:01:13;;;;;;;2.22;1.10;;;;;;;;;;4937218;29;20057;-52
2022/10/01 00:03:59;;;;;;;1.50;1.40;;;;;;;;;;4939812;29;20390;-49
2022/10/01 00:06:45;;;;;;;1.58;1.20;;;;;;;;;;4940827;28;20062;-49
2022/10/01 00:09:31;;;;;;;2.83;1.80;;;;;;;;;;4940919;29;20062;-51
2022/10/01 00:12:17;;;;;;;1.30;1.20;;;;;;;;;;4935979;29;20042;-50
2022/10/01 00:15:08;;;;;;;0.98;0.93;;;;;;;;;;4936137;29;20054;-50
2022/10/01 00:17:53;;;;;;;3.00;1.15;;;;;;;;;;4940262;29;20044;-50
2022/10/01 00:20:42;;;;;;;1.30;1.20;;;;;;;;;;4932253;29;20070;-49
2022/10/01 00:23:27;;;;;;;1.55;1.20;;;;;;;;;;4937776;29;20047;-52
2022/10/01 00:26:16;;;;;;;2.60;1.30;;;;;;;;;;4937394;29;20134;-50
2022/10/01 00:29:09;;;;;;;2.40;1.30;;;;;;;;;;4938073;28;20036;-49
2022/10/01 00:31:54;;;;;;;3.22;1.35;;;;;;;;;;4940830;29;20031;-54
2022/10/01 00:34:40;;;;;;;1.08;0.98;;;;;;;;;;4938073;29;20054;-50
2022/10/01 00:37:26;;;;;;;1.65;1.25;;;;;;;;;;4933681;29;20086;-52
2022/10/01 00:40:11;;;;;;;0.90;0.90;;;;;;;;;;4928666;29;20035;-51
2022/10/01 00:42:57;;;;;;;1.95;1.52;;;;;;;;;;4938232;29;20074;-50
2022/10/01 00:45:43;;;;;;;1.73;1.17;;;;;;;;;;4936619;29;20031;-49
2022/10/01 00:48:33;;;;;;;1.10;1.05;;;;;;;;;;4936791;29;20042;-53
2022/10/01 00:51:19;;;;;;;1.23;1.15;;;;;;;;;;4935786;28;20039;-49
2022/10/01 00:54:13;;;;;;;2.33;1.40;;;;;;;;;;4938896;28;20047;-49
2022/10/01 00:57:01;;;;;;;1.27;1.10;;;;;;;;;;4937548;29;20036;-52
2022/10/01 00:59:48;;;;;;;0.95;0.95;;;;;;;;;;4939684;29;20097;-50
2022/10/01 01:02:34;;;;;;;1.02;1.02;;;;;;;;;;4943425;28;20066;-54
2022/10/01 01:05:22;;;;;;;1.85;1.50;;;;;;;;;;4934860;29;20035;-51
2022/10/01 01:08:08;;;;;;;2.25;1.08;;;;;;;;;;4938271;29;20126;-53
2022/10/01 01:11:11;;;;;;;1.58;1.27;;;;;;;;;;4939499;29;20175;-52
2022/10/01 01:14:03;;;;;;;;;;;;;;;;;;4935093;29;20055;-52
2022/10/01 01:16:53;;;;;;;2.38;1.23;;;;;;;;;;4937885;29;19965;-49
2022/10/01 01:20:00;;;;;;;1.42;1.33;;;;;;;;;;4935268;29;20044;-56
2022/10/01 01:23:03;;;;;;;4.38;1.27;;;;;;;;;;4941011;29;20031;-49
2022/10/01 01:26:23;;;;;;;2.22;1.30;;;;;;;;;;4941333;28;20040;-50
2022/10/01 01:29:24;;;;;;;1.70;1.20;;;;;;;;;;4875763;29;20077;-52
2022/10/01 01:32:13;;;;;;;2.30;1.30;;;;;;;;;;4884356;29;20167;-52
2022/10/01 01:35:01;;;;;;;2.78;1.20;;;;;;;;;;4874811;29;20132;-50
2022/10/01 01:37:53;;;;;;;1.20;1.10;;;;;;;;;;4875423;29;20525;-49
2022/10/01 01:40:41;;;;;;;4.55;1.40;;;;;;;;;;4882771;29;20044;-52
2022/10/01 01:43:34;;;;;;;1.00;1.00;;;;;;;;;;4879237;29;20063;-51
2022/10/01 01:46:20;;;;;;;1.45;1.10;;;;;;;;;;4878424;29;20075;-51
2022/10/01 01:49:06;;;;;;;1.45;1.30;;;;;;;;;;4874302;29;20062;-51
2022/10/01 01:52:06;;;;;;;1.58;1.25;;;;;;;;;;4878955;29;20040;-53
2022/10/01 01:54:53;;;;;;;1.20;1.10;;;;;;;;;;4879749;29;20652;-49
2022/10/01 01:57:42;;;;;;;4.38;1.25;;;;;;;;;;4880665;29;20119;-50
2022/10/01 02:00:28;;;;;;;1.92;1.15;;;;;;;;;;4884168;29;20448;-50
2022/10/01 02:03:14;;;;;;;1.23;1.13;;;;;;;;;;4878624;29;20157;-50
2022/10/01 02:06:15;;;;;;;1.50;1.30;;;;;;;;;;4912829;29;20412;-50
2022/10/01 02:09:13;;;;;;;2.40;1.30;;;;;;;;;;4936776;29;20122;-49
2022/10/01 02:12:14;;;;;;;1.67;1.52;;;;;;;;;;4941196;29;20043;-50
2022/10/01 02:15:26;;;;;;;2.38;1.85;;;;;;;;;;4933478;29;20054;-51
2022/10/01 02:18:33;;;;;;;5.35;1.58;;;;;;;;;;4929584;28;20071;-48
2022/10/01 02:21:32;;;;;;;7.28;1.50;;;;;;;;;;4938246;29;20027;-51
2022/10/01 02:24:58;;;;;;;1.75;1.17;;;;;;;;;;4936826;28;20041;-52
2022/10/01 02:27:50;;;;;;;1.33;1.23;;;;;;;;;;4934955;29;20083;-53
2022/10/01 02:30:38;;;;;;;1.30;1.13;;;;;;;;;;4938975;29;20031;-50
2022/10/01 02:33:29;;;;;;;1.58;1.38;;;;;;;;;;4938274;28;20130;-52
2022/10/01 02:36:16;;;;;;;1.40;1.30;;;;;;;;;;4936089;29;20055;-49
2022/10/01 02:39:05;;;;;;;2.85;1.20;;;;;;;;;;4936033;29;20118;-49
2022/10/01 02:41:54;;;;;;;2.05;1.27;;;;;;;;;;4938153;29;20117;-52
2022/10/01 02:44:43;;;;;;;1.60;1.33;;;;;;;;;;4935004;29;20408;-50
2022/10/01 02:47:33;;;;;;;1.20;1.10;;;;;;;;;;4937366;28;20424;-51
2022/10/01 02:50:20;;;;;;;1.42;1.33;;;;;;;;;;4932366;29;20551;-50
2022/10/01 02:53:12;;;;;;;1.67;1.27;;;;;;;;;;4934322;29;20075;-52
2022/10/01 02:55:59;;;;;;;2.25;1.20;;;;;;;;;;4935976;29;20054;-53
2022/10/01 02:58:46;;;;;;;1.30;1.20;;;;;;;;;;4936307;28;20039;-50
2022/10/01 03:01:32;;;;;;;1.35;1.15;;;;;;;;;;4934984;29;20034;-52
2022/10/01 03:04:18;;;;;;;1.73;1.35;;;;;;;;;;4930760;28;20036;-49
2022/10/01 03:07:04;;;;;;;1.75;1.35;;;;;;;;;;4940003;28;20510;-53
2022/10/01 03:09:50;;;;;;;1.83;1.48;;;;;;;;;;4935746;29;20523;-51
2022/10/01 03:12:36;;;;;;;1.30;1.20;;;;;;;;;;4931728;29;20038;-52
2022/10/01 03:15:22;;;;;;;2.17;1.40;;;;;;;;;;4923005;29;20079;-55
2022/10/01 03:18:07;;;;;;;1.50;1.40;;;;;;;;;;4935401;29;20118;-53
2022/10/01 03:20:53;;;;;;;1.30;1.20;;;;;;;;;;4930113;29;20468;-53
2022/10/01 03:23:39;;;;;;;1.50;1.40;;;;;;;;;;4925015;29;20043;-54
2022/10/01 03:26:24;;;;;;;1.88;1.70;;;;;;;;;;4934082;29;20484;-51
2022/10/01 03:29:12;;;;;;;1.63;1.38;;;;;;;;;;4937933;29;20044;-53
2022/10/01 03:31:57;;;;;;;1.98;1.33;;;;;;;;;;4937825;28;20028;-53
2022/10/01 03:34:43;;;;;;;1.40;1.33;;;;;;;;;;4932369;29;20074;-51
2022/10/01 03:37:29;;;;;;;1.30;1.20;;;;;;;;;;4934317;29;20062;-51
2022/10/01 03:40:15;;;;;;;3.25;1.52;;;;;;;;;;4937055;29;20082;-53
2022/10/01 03:43:00;;;;;;;1.40;1.30;;;;;;;;;;4931622;29;20062;-50
2022/10/01 03:45:46;;;;;;;3.05;1.80;;;;;;;;;;4935516;29;20042;-52
2022/10/01 03:48:32;;;;;;;3.20;2.10;;;;;;;;;;4935686;29;20043;-50
2022/10/01 03:51:20;;;;;;;2.17;1.35;;;;;;;;;;4934232;29;20609;-53
2022/10/01 03:54:07;;;;;;;2.03;1.58;;;;;;;;;;4934063;29;20063;-52
2022/10/01 03:56:53;;;;;;;1.67;1.33;;;;;;;;;;4937230;29;20043;-52
2022/10/01 03:59:39;;;;;;;1.30;1.20;;;;;;;;;;4928538;29;20103;-52
2022/10/01 04:02:26;;;;;;;1.38;1.10;;;;;;;;;;4939755;29;20111;-53
2022/10/01 04:05:12;;;;;;;2.55;1.63;;;;;;;;;;4937935;28;20052;-49
2022/10/01 04:07:58;;;;;;;2.85;1.27;;;;;;;;;;4937730;28;20055;-50
2022/10/01 04:10:44;;;;;;;6.00;1.75;;;;;;;;;;4937237;28;20042;-50
2022/10/01 04:13:30;;;;;;;2.70;1.38;;;;;;;;;;4930317;29;20099;-54
2022/10/01 04:16:15;;;;;;;3.50;1.58;;;;;;;;;;4939457;29;20050;-52
2022/10/01 04:19:02;;;;;;;1.52;1.42;;;;;;;;;;4939123;29;20452;-51
2022/10/01 04:21:48;;;;;;;1.35;1.25;;;;;;;;;;4937735;29;20036;-49
2022/10/01 04:24:34;;;;;;;4.60;1.35;;;;;;;;;;4937707;28;20047;-51
2022/10/01 04:27:19;;;;;;;1.58;1.23;;;;;;;;;;4939520;29;20086;-51
2022/10/01 04:30:07;;;;;;;8.02;1.40;;;;;;;;;;4936212;29;20505;-49
2022/10/01 04:32:53;;;;;;;1.48;1.38;;;;;;;;;;4937782;28;20043;-50
2022/10/01 04:35:39;;;;;;;1.60;1.50;;;;;;;;;;4939893;29;20067;-50
2022/10/01 04:38:25;;;;;;;1.40;1.30;;;;;;;;;;4935534;28;20051;-50
2022/10/01 04:41:12;;;;;;;1.40;1.30;;;;;;;;;;4938343;28;20032;-50
2022/10/01 04:43:58;;;;;;;4.32;1.75;;;;;;;;;;4939577;29;20515;-52
2022/10/01 04:46:44;;;;;;;2.00;1.50;;;;;;;;;;4935682;29;20039;-49
2022/10/01 04:49:31;;;;;;;1.50;1.40;;;;;;;;;;4932068;28;20040;-50
2022/10/01 04:52:17;;;;;;;2.13;1.48;;;;;;;;;;4939344;28;20669;-50
2022/10/01 04:55:03;;;;;;;2.45;1.30;;;;;;;;;;4940868;29;20058;-49
2022/10/01 04:57:49;;;;;;;2.70;1.50;;;;;;;;;;4937926;29;21196;-51
2022/10/01 05:00:35;;;;;;;3.25;1.52;;;;;;;;;;4940627;29;20035;-49
2022/10/01 05:03:20;;;;;;;1.75;1.30;;;;;;;;;;4935997;29;20056;-50
2022/10/01 05:06:06;;;;;;;1.63;1.40;;;;;;;;;;4941697;29;20492;-52
2022/10/01 05:08:52;;;;;;;4.38;1.70;;;;;;;;;;4939397;28;20052;-56
2022/10/01 05:11:37;;;;;;;1.40;1.30;;;;;;;;;;4933978;29;20067;-50
2022/10/01 05:14:24;;;;;;;2.80;1.35;;;;;;;;;;4933900;28;20401;-53
2022/10/01 05:17:10;;;;;;;1.42;1.33;;;;;;;;;;4940063;28;20064;-51
2022/10/01 05:19:56;;;;;;;1.45;1.35;;;;;;;;;;4932568;29;20028;-50
2022/10/01 05:22:43;;;;;;;2.75;1.58;;;;;;;;;;4939546;28;20396;-50
2022/10/01 05:25:28;;;;;;;2.30;1.23;;;;;;;;;;4935255;29;20038;-54
2022/10/01 05:28:15;;;;;;;3.15;1.40;;;;;;;;;;4939815;28;20046;-51
2022/10/01 05:31:02;;;;;;;1.63;1.48;;;;;;;;;;4935697;29;20444;-50
2022/10/01 05:33:47;;;;;;;1.30;1.20;;;;;;;;;;4930274;29;20058;-52
2022/10/01 05:36:33;;;;;;;3.90;1.60;;;;;;;;;;4938364;28;20384;-53
2022/10/01 05:39:19;;;;;;;2.65;2.00;;;;;;;;;;4937078;29;20122;-54
2022/10/01 05:42:05;;;;;;;2.03;1.52;;;;;;;;;;4940624;29;20039;-50
2022/10/01 05:44:50;;;;;;;3.97;1.55;;;;;;;;;;4938186;29;20056;-54
2022/10/01 05:47:36;;;;;;;9.90;1.67;;;;;;;;;;4939869;29;20031;-55
2022/10/01 05:50:22;;;;;;;4.88;1.80;;;;;;;;;;4934995;29;20122;-53
2022/10/01 05:53:12;;;;;;;1.45;1.35;;;;;;;;;;4935175;29;20054;-52
2022/10/01 05:56:01;;;;;;;4.00;1.85;;;;;;;;;;4939428;29;20028;-54
2022/10/01 05:58:46;;;;;;;1.63;1.52;;;;;;;;;;4937969;28;20043;-54
2022/10/01 06:01:32;;;;;;;2.55;1.63;;;;;;;;;;4936572;29;20512;-54
2022/10/01 06:04:18;;;;;;;5.53;1.92;;;;;;;;;;4938928;28;20043;-52
2022/10/01 06:07:03;;;;;;;1.27;1.27;;;;;;;;;;4936218;29;20086;-53
2022/10/01 06:09:49;;;;;;;1.95;1.73;;;;;;;;;;4933245;29;20083;-49
2022/10/01 06:12:35;;;;;;;1.70;1.60;;;;;;;;;;4942310;28;20033;-54
2022/10/01 06:15:21;;;;;;;3.80;1.63;;;;;;;;;;4929931;29;20040;-52
2022/10/01 06:18:08;;;;;;;1.88;1.65;;;;;;;;;;4932407;29;20079;-52
2022/10/01 06:20:53;;;;;;;2.50;1.50;;;;;;;;;;4932826;29;20046;-53
2022/10/01 06:23:39;;;;;;;1.80;1.70;;;;;;;;;;4939154;29;20106;-53
2022/10/01 06:26:25;;;;;;;3.17;1.55;;;;;;;;;;4935199;29;20035;-55
2022/10/01 06:29:11;;;;;;;2.17;1.70;;;;;;;;;;4936304;29;20083;-53
2022/10/01 06:31:57;;;;;;;1.52;1.42;;;;;;;;;;4937700;29;20038;-50
2022/10/01 06:34:42;;;;;;;1.70;1.58;;;;;;;;;;4933523;29;20048;-55
2022/10/01 06:37:29;;;;;;;2.50;1.52;;;;;;;;;;4939196;29;20051;-52
2022/10/01 06:40:15;;;;;;;2.05;1.60;;;;;;;;;;4937297;29;20032;-53
2022/10/01 06:43:01;;;;;;;2.13;1.63;;;;;;;;;;4936393;29;20106;-50
2022/10/01 06:45:47;;;;;;;2.47;1.25;;;;;;;;;;4924449;29;20053;-51
2022/10/01 06:48:34;;;;;;;3.08;1.58;;;;;;;;;;4935055;29;20039;-52
2022/10/01 06:52:47;;;;;;;3.35;1.50;;;;;;;;;;4936373;29;20098;-52
2022/10/01 06:54:26;;;;;;;1.40;1.30;;;;;;;;;;4939639;28;20520;-51
2022/10/01 06:57:11;;;;;;;2.85;1.33;;;;;;;;;;4937368;29;20053;-49
2022/10/01 06:59:58;;;;;;;1.83;1.48;;;;;;;;;;4932548;29;20362;-52
2022/10/01 07:02:44;;;;;;;1.50;1.40;;;;;;;;;;4935142;29;20042;-52
2022/10/01 07:05:29;;;;;;;2.17;1.40;;;;;;;;;;4937299;29;20043;-49
2022/10/01 07:08:16;;;;;;;2.63;1.25;;;;;;;;;;4931548;28;20042;-50
2022/10/01 07:11:03;;;;;;;1.48;1.33;;;;;;;;;;4923109;29;20041;-50
2022/10/01 07:13:49;;;;;;;2.45;1.67;;;;;;;;;;4924886;29;20054;-49
2022/10/01 07:16:38;;;;;;;4.35;1.80;;;;;;;;;;4934238;29;20031;-52
2022/10/01 07:19:24;;;;;;;5.47;1.50;;;;;;;;;;4927537;28;20497;-52
2022/10/01 07:22:10;;;;;;;3.42;2.00;;;;;;;;;;4925273;29;20175;-51
2022/10/01 07:24:56;;;;;;;1.60;1.50;;;;;;;;;;4923618;29;20613;-53
2022/10/01 07:27:41;;;;;;;1.80;1.52;;;;;;;;;;4927961;29;20071;-54
2022/10/01 07:30:28;;;;;;;3.72;1.67;;;;;;;;;;4922511;29;20032;-56
2022/10/01 07:33:17;;;;;;;1.70;1.50;;;;;;;;;;4928990;29;20080;-53
2022/10/01 07:36:05;;;;;;;2.70;1.60;;;;;;;;;;4932147;28;20064;-55
2022/10/01 07:38:51;;;;;;;3.33;1.70;;;;;;;;;;4919762;29;20051;-53
2022/10/01 07:41:37;;;;;;;6.78;2.15;;;;;;;;;;4922576;29;20038;-52
2022/10/01 07:44:22;;;;;;;3.15;2.35;;;;;;;;;;4925640;29;20051;-50
2022/10/01 07:47:08;;;;;;;2.85;2.20;;;;;;;;;;4925142;29;20389;-53
2022/10/01 07:49:54;;;;;;;2.78;2.20;;;;;;;;;;4908857;29;20075;-50
2022/10/01 07:52:39;;;;;;;4.28;2.17;;;;;;;;;;4907581;28;20052;-55
2022/10/01 07:55:27;;;;;;;2.90;2.08;;;;;;;;;;4907424;29;20516;-54
2022/10/01 07:58:13;;;;;;;4.45;2.30;;;;;;;;;;4907006;28;20039;-54
2022/10/01 08:01:02;;;;;;;3.67;2.35;;;;;;;;;;4907143;29;20048;-50
2022/10/01 08:03:49;;;;;;;2.78;2.15;;;;;;;;;;4905131;28;20077;-55
2022/10/01 08:06:37;;;;;;;5.07;2.40;;;;;;;;;;4911709;29;20134;-52
2022/10/01 08:09:23;;;;;;;24.23;9.80;;;;;;;;;;4911777;29;20036;-54
2022/10/01 08:12:09;;;;;;;20.85;7.47;;;;;;;;;;4914497;29;20095;-52
2022/10/01 08:14:55;;;;;;;18.15;8.00;;;;;;;;;;4916667;29;20046;-54
2022/10/01 08:17:41;;;;;;;18.13;6.57;;;;;;;;;;4909386;29;20400;-56
2022/10/01 08:20:27;;;;;;;7.50;2.60;;;;;;;;;;4912529;29;20492;-54
2022/10/01 08:23:15;;;;;;;8.57;2.40;;;;;;;;;;4918249;29;20054;-54
2022/10/01 08:26:06;;;;;;;3.67;1.20;;;;;;;;;;4917246;29;20048;-52
2022/10/01 08:28:52;;;;;;;2.95;1.30;;;;;;;;;;4918703;29;20408;-54
2022/10/01 08:31:37;;;;;;;2.25;1.40;;;;;;;;;;4911202;29;20033;-53
2022/10/01 08:34:23;;;;;;;2.55;1.23;;;;;;;;;;4918431;29;20146;-52
2022/10/01 08:37:09;;;;;;;3.63;1.30;;;;;;;;;;4921780;29;20148;-52
2022/10/01 08:39:55;;;;;;;1.80;1.05;;;;;;;;;;4919523;28;20468;-54
2022/10/01 08:43:01;;;;;;;1.50;1.38;;;;;;;;;;4914673;29;20401;-54
2022/10/01 08:45:52;;;;;;;1.88;1.33;;;;;;;;;;4921185;29;20047;-55
2022/10/01 08:48:53;;;;;;;2.22;1.40;;;;;;;;;;4921578;28;20039;-53
2022/10/01 08:51:56;;;;;;;1.33;1.20;;;;;;;;;;4917071;29;20049;-55
2022/10/01 08:54:46;;;;;;;2.10;1.33;;;;;;;;;;4921497;29;20094;-55
2022/10/01 08:57:42;;;;;;;2.58;1.23;;;;;;;;;;4920504;28;20036;-54
2022/10/01 09:00:31;;;;;;;1.25;1.15;;;;;;;;;;4918725;29;20434;-50
2022/10/01 09:03:17;;;;;;;1.92;1.10;;;;;;;;;;4914924;29;20032;-54
2022/10/01 09:06:18;;;;;;;2.05;1.30;;;;;;;;;;4917651;29;20030;-52
2022/10/01 09:09:38;;;;;;;1.55;1.30;;;;;;;;;;4921448;29;20036;-54
2022/10/01 09:12:29;;;;;;;1.50;1.40;;;;;;;;;;4915883;29;20044;-55
2022/10/01 09:15:30;;;;;;;1.30;1.23;;;;;;;;;;4915961;28;20044;-54
2022/10/01 09:18:24;;;;;;;1.77;1.27;;;;;;;;;;4919573;29;20059;-56
2022/10/01 09:21:19;;;;;;;1.58;1.20;;;;;;;;;;4914927;29;20040;-55
2022/10/01 09:24:16;;;;;;;1.30;1.13;;;;;;;;;;4916719;29;20095;-55
2022/10/01 09:27:14;;;;;;;2.25;1.20;;;;;;;;;;4921476;29;20035;-55
2022/10/01 09:30:10;;;;;;;1.35;1.23;;;;;;;;;;4916215;29;20083;-51
2022/10/01 09:33:02;;;;;;;2.80;1.30;;;;;;;;;;4914243;29;20115;-54
2022/10/01 09:36:03;;;;;;;1.20;1.10;;;;;;;;;;4915256;29;20083;-51
2022/10/01 09:39:08;;;;;;;5.13;1.27;;;;;;;;;;4913552;29;20040;-53
2022/10/01 09:41:55;;;;;;;3.13;1.58;;;;;;;;;;4920965;29;20044;-54
2022/10/01 09:44:41;;;;;;;1.20;1.10;;;;;;;;;;4921196;29;20040;-53
2022/10/01 09:47:27;;;;;;;2.00;1.30;;;;;;;;;;4919676;29;20234;-54
2022/10/01 09:50:18;;;;;;;2.78;1.50;;;;;;;;;;4926141;29;20058;-53
2022/10/01 09:53:08;;;;;;;2.85;1.38;;;;;;;;;;4936260;29;20591;-55
2022/10/01 09:56:00;;;;;;;3.03;1.30;;;;;;;;;;4937922;29;20113;-53
2022/10/01 09:58:52;;;;;;;3.57;1.57;;;;;;;;;;4926568;28;20044;-54
2022/10/01 10:01:45;;;;;;;3.60;1.42;;;;;;;;;;4937135;29;20074;-55
2022/10/01 10:04:31;;;;;;;2.28;1.00;;;;;;;;;;4935036;29;20047;-53
2022/10/01 10:07:17;;;;;;;0.93;0.93;;;;;;;;;;4939227;29;20042;-54
2022/10/01 10:10:18;;;;;;;2.80;1.30;;;;;;;;;;4934106;29;20047;-53
2022/10/01 10:13:17;;;;;;;3.33;1.08;;;;;;;;;;4934628;29;20039;-55
2022/10/01 10:16:14;;;;;;;2.05;1.50;;;;;;;;;;4938184;29;20043;-54
2022/10/01 10:19:03;;;;;;;3.30;1.40;;;;;;;;;;4936700;29;20036;-53
2022/10/01 10:21:51;;;;;;;2.03;1.50;;;;;;;;;;4936126;29;20049;-56
2022/10/01 10:24:37;;;;;;;7.82;2.28;;;;;;;;;;4934007;28;20043;-56
2022/10/01 10:27:28;;;;;;;6.03;2.67;;;;;;;;;;4933426;29;20082;-55
2022/10/01 10:30:16;;;;;;;3.85;2.30;;;;;;;;;;4929076;28;20505;-56
2022/10/01 10:33:04;;;;;;;2.72;1.25;;;;;;;;;;4929794;29;20043;-55
2022/10/01 10:36:03;;;;;;;3.17;0.90;;;;;;;;;;4933625;29;20537;-54
2022/10/01 10:38:52;;;;;;;0.75;0.75;;;;;;;;;;4934068;29;20074;-55
2022/10/01 10:41:43;;;;;;;4.88;0.90;;;;;;;;;;4938265;29;20033;-55
2022/10/01 10:44:35;;;;;;;0.82;0.80;;;;;;;;;;4940648;29;20074;-56
2022/10/01 10:47:21;;;;;;;0.85;0.63;;;;;;;;;;4937229;29;20042;-51
2022/10/01 10:50:37;;;;;;;0.73;0.70;;;;;;;;;;4937574;28;20504;-55
2022/10/01 10:53:25;;;;;;;1.27;0.63;;;;;;;;;;4931303;29;20038;-55
2022/10/01 10:56:22;;;;;;;1.17;0.80;;;;;;;;;;4940436;28;20411;-53
2022/10/01 10:59:08;;;;;;;2.03;0.60;;;;;;;;;;4930998;28;20048;-53
2022/10/01 11:01:54;;;;;;;1.40;0.70;;;;;;;;;;4926084;29;20079;-53
2022/10/01 11:04:43;;;;;;;2.70;0.82;;;;;;;;;;4936310;28;20048;-54
2022/10/01 11:07:29;;;;;;;1.00;0.90;;;;;;;;;;4935447;29;20067;-53
2022/10/01 11:10:28;;;;;;;3.35;0.70;;;;;;;;;;4934549;28;20047;-52
2022/10/01 11:13:33;;;;;;;1.60;0.75;;;;;;;;;;4929455;29;20039;-46
2022/10/01 11:16:40;;;;;;;2.70;0.60;;;;;;;;;;4930694;29;20493;-54
2022/10/01 11:19:43;;;;;;;1.58;0.90;;;;;;;;;;4930594;29;20106;-51
2022/10/01 11:22:55;;;;;;;1.33;1.10;;;;;;;;;;4930852;29;20039;-54
2022/10/01 11:25:57;;;;;;;1.92;1.83;;;;;;;;;;4940951;29;20047;-53
2022/10/01 11:28:58;;;;;;;2.05;1.80;;;;;;;;;;4940510;28;20044;-54
2022/10/01 11:32:18;;;;;;;3.60;1.92;;;;;;;;;;4932367;29;20067;-53
2022/10/01 11:35:27;;;;;;;6.40;2.08;;;;;;;;;;4938796;28;20055;-52
2022/10/01 11:38:29;;;;;;;3.38;1.40;;;;;;;;;;4941680;29;20047;-51
2022/10/01 11:41:34;;;;;;;1.20;0.95;;;;;;;;;;4941863;28;20043;-53
2022/10/01 11:44:41;;;;;;;1.02;0.93;;;;;;;;;;4932423;28;20055;-53
2022/10/01 11:47:35;;;;;;;5.03;1.00;;;;;;;;;;4937836;29;20040;-50
2022/10/01 11:50:29;;;;;;;1.65;1.27;;;;;;;;;;4937367;29;20047;-54
2022/10/01 11:53:20;;;;;;;3.70;1.00;;;;;;;;;;4939600;28;20054;-41
2022/10/01 11:59:28;;;;;;;3.40;1.80;;;;;;;;;;4942244;28;20043;-53
2022/10/01 12:02:27;;;;;;;7.07;2.58;;;;;;;;;;4937233;29;20480;-49
2022/10/01 12:05:19;;;;;;;3.65;2.15;;;;;;;;;;4936495;29;20050;-53
2022/10/01 12:08:28;;;;;;;4.32;3.15;;;;;;;;;;4933094;29;20023;-51
2022/10/01 12:11:27;;;;;;;7.45;3.53;;;;;;;;;;4936104;29;20047;-50
2022/10/01 12:14:18;;;;;;;8.85;4.55;;;;;;;;;;4937628;29;20043;-53
2022/10/01 12:17:24;;;;;;;23.48;8.82;;;;;;;;;;4939401;29;20622;-49
2022/10/01 12:20:40;;;;;;;17.17;7.97;;;;;;;;;;4940794;29;20107;-50
2022/10/01 12:23:31;;;;;;;22.35;9.98;;;;;;;;;;4942250;29;20042;-49
2022/10/01 12:26:39;;;;;;;29.83;13.15;;;;;;;;;;4943653;28;20051;-51
2022/10/01 12:30:02;;;;;;;22.50;9.90;;;;;;;;;;4933945;29;20039;-49
2022/10/01 12:32:50;;;;;;;15.25;8.73;;;;;;;;;;4939737;29;20035;-49
2022/10/01 12:35:56;;;;;;;12.50;7.70;;;;;;;;;;4942212;29;20047;-50
2022/10/01 12:38:42;;;;;;;11.68;6.25;;;;;;;;;;4944718;29;20527;-54
2022/10/01 12:41:46;;;;;;;12.13;5.88;;;;;;;;;;4929795;29;20066;-51
2022/10/01 12:44:55;;;;;;;13.50;7.15;;;;;;;;;;4938484;28;20059;-52
2022/10/01 12:47:48;;;;;;;11.38;6.60;;;;;;;;;;4930768;28;20042;-54
2022/10/01 12:50:45;;;;;;;14.25;6.72;;;;;;;;;;4924355;29;21376;-53
2022/10/01 12:53:52;;;;;;;6.10;4.05;;;;;;;;;;4926062;29;20047;-53
2022/10/01 12:56:47;;;;;;;6.10;2.50;;;;;;;;;;4935895;29;20031;-53
2022/10/01 12:59:50;;;;;;;3.30;1.77;;;;;;;;;;4930112;29;20050;-52
2022/10/01 13:02:40;;;;;;;2.33;1.50;;;;;;;;;;4934778;29;20102;-52
2022/10/01 13:05:57;;;;;;;4.03;1.50;;;;;;;;;;4931735;29;20087;-50
2022/10/01 13:08:52;;;;;;;4.30;1.92;;;;;;;;;;4925923;29;20103;-53
2022/10/01 13:11:43;;;;;;;6.03;2.42;;;;;;;;;;4936942;28;20396;-49
2022/10/01 13:14:31;;;;;;;3.67;2.40;;;;;;;;;;4925907;29;20119;-55
2022/10/01 13:17:30;;;;;;;2.47;2.03;;;;;;;;;;4931438;29;20035;-51
2022/10/01 13:20:39;;;;;;;4.47;1.83;;;;;;;;;;4922712;29;20036;-52
2022/10/01 13:23:45;;;;;;;6.05;3.53;;;;;;;;;;4932868;29;20047;-50
2022/10/01 13:26:40;;;;;;;8.27;4.47;;;;;;;;;;4931747;29;20480;-53
2022/10/01 13:29:45;;;;;;;8.07;3.75;;;;;;;;;;4928004;28;20070;-52
2022/10/01 13:32:36;;;;;;;6.65;2.42;;;;;;;;;;4926086;29;20036;-50
2022/10/01 13:35:35;;;;;;;3.38;1.83;;;;;;;;;;4931488;28;20503;-52
2022/10/01 13:38:37;;;;;;;4.68;1.58;;;;;;;;;;4923895;29;20044;-52
2022/10/01 13:41:28;;;;;;;2.15;1.10;;;;;;;;;;4932289;29;20032;-51
2022/10/01 13:44:13;;;;;;;4.32;1.10;;;;;;;;;;4925494;28;20056;-50
2022/10/01 13:47:05;;;;;;;2.95;1.17;;;;;;;;;;4931533;29;20070;-49
2022/10/01 13:50:07;;;;;;;1.60;1.00;;;;;;;;;;4930840;29;20063;-50
2022/10/01 13:53:06;;;;;;;6.55;1.33;;;;;;;;;;4933887;28;20046;-48
2022/10/01 13:55:53;;;;;;;1.58;0.90;;;;;;;;;;4933500;29;20051;-48
2022/10/01 13:58:46;;;;;;;2.53;1.05;;;;;;;;;;4930409;28;20127;-54
2022/10/01 14:01:40;;;;;;;6.88;1.13;;;;;;;;;;4928145;29;20023;-50
2022/10/01 14:04:34;;;;;;;3.33;1.60;;;;;;;;;;4934421;29;20131;-50
2022/10/01 14:07:26;;;;;;;9.25;0.85;;;;;;;;;;4935152;29;20032;-51
2022/10/01 14:10:14;;;;;;;1.40;0.93;;;;;;;;;;4934287;29;20043;-52
2022/10/01 14:16:06;;;;;;;3.97;0.80;;;;;;;;;;4928454;29;20098;-50
2022/10/01 14:18:52;;;;;;;3.30;0.98;;;;;;;;;;4922026;29;20058;-49
2022/10/01 14:21:54;;;;;;;0.93;0.80;;;;;;;;;;4933557;29;20175;-50
2022/10/01 14:25:07;;;;;;;4.32;1.10;;;;;;;;;;4929654;29;20039;-49
2022/10/01 14:28:34;;;;;;;2.70;1.40;;;;;;;;;;4933688;29;20047;-50
2022/10/01 14:31:31;;;;;;;3.40;1.40;;;;;;;;;;4933930;29;20126;-49
2022/10/01 14:34:45;;;;;;;2.83;1.23;;;;;;;;;;4928367;29;20052;-53
2022/10/01 14:37:37;;;;;;;1.80;1.05;;;;;;;;;;4927333;29;20048;-50
2022/10/01 14:40:23;;;;;;;3.40;0.82;;;;;;;;;;4930084;29;20098;-49
2022/10/01 14:43:25;;;;;;;4.45;1.10;;;;;;;;;;4931116;29;20070;-50
2022/10/01 14:46:15;;;;;;;3.83;1.00;;;;;;;;;;4931276;29;21267;-53
2022/10/01 14:49:00;;;;;;;1.73;0.85;;;;;;;;;;4923883;29;20043;-50
2022/10/01 14:51:53;;;;;;;2.08;0.90;;;;;;;;;;4923645;29;20097;-49
2022/10/01 14:54:48;;;;;;;2.38;0.80;;;;;;;;;;4927034;29;20494;-54
2022/10/01 14:57:37;;;;;;;4.93;0.82;;;;;;;;;;4935175;29;20886;-52
2022/10/01 15:00:28;;;;;;;2.25;1.00;;;;;;;;;;4934618;29;20183;-53
2022/10/01 15:03:14;;;;;;;1.27;0.70;;;;;;;;;;4937142;29;20035;-49
2022/10/01 15:06:03;;;;;;;2.85;0.90;;;;;;;;;;4936042;29;20039;-49
2022/10/01 15:08:52;;;;;;;3.38;1.13;;;;;;;;;;4936465;29;20039;-52
2022/10/01 15:11:38;;;;;;;2.40;0.80;;;;;;;;;;4933952;29;20040;-52
2022/10/01 15:14:24;;;;;;;3.67;1.08;;;;;;;;;;4927343;29;20757;-50
2022/10/01 15:17:17;;;;;;;4.68;0.98;;;;;;;;;;4925136;29;20093;-51
2022/10/01 15:20:03;;;;;;;2.05;1.13;;;;;;;;;;4928107;29;20035;-50
2022/10/01 15:22:53;;;;;;;3.45;1.20;;;;;;;;;;4935940;29;20962;-54
2022/10/01 15:25:43;;;;;;;5.85;1.27;;;;;;;;;;4931453;29;20051;-49
2022/10/01 15:28:31;;;;;;;1.73;1.00;;;;;;;;;;4934725;29;20027;-52
2022/10/01 15:31:20;;;;;;;6.18;1.13;;;;;;;;;;4939843;29;20028;-49
2022/10/01 15:34:13;;;;;;;5.70;0.82;;;;;;;;;;4932388;29;20496;-50
2022/10/01 15:36:59;;;;;;;1.50;0.80;;;;;;;;;;4935773;29;20028;-48
2022/10/01 15:39:50;;;;;;;6.43;1.35;;;;;;;;;;4935946;28;20660;-53
2022/10/01 15:42:36;;;;;;;1.58;1.02;;;;;;;;;;4924376;29;20035;-48
2022/10/01 15:45:24;;;;;;;2.05;0.85;;;;;;;;;;4925540;29;20040;-50
2022/10/01 15:48:28;;;;;;;2.35;0.90;;;;;;;;;;4931456;29;20036;-49
2022/10/01 15:51:27;;;;;;;2.78;1.00;;;;;;;;;;4930032;29;20123;-49
2022/10/01 15:54:14;;;;;;;1.42;0.93;;;;;;;;;;4927271;29;20043;-53
2022/10/01 15:57:02;;;;;;;2.58;1.02;;;;;;;;;;4927339;29;20448;-50
2022/10/01 15:59:53;;;;;;;4.25;0.88;;;;;;;;;;4928568;29;20048;-50
2022/10/01 16:02:43;;;;;;;2.35;0.90;;;;;;;;;;4936816;29;20027;-49
2022/10/01 16:05:43;;;;;;;1.48;0.93;;;;;;;;;;4926007;29;20489;-50
2022/10/01 16:08:33;;;;;;;1.45;0.93;;;;;;;;;;4938192;29;20043;-49
2022/10/01 16:11:30;;;;;;;4.07;0.82;;;;;;;;;;4936538;28;20032;-48
2022/10/01 16:14:39;;;;;;;2.67;1.10;;;;;;;;;;4933008;29;20050;-51
2022/10/01 16:17:28;;;;;;;3.17;0.90;;;;;;;;;;4935642;29;20070;-52
2022/10/01 16:20:13;;;;;;;1.20;1.00;;;;;;;;;;4930002;29;20119;-51
2022/10/01 16:23:32;;;;;;;5.35;1.17;;;;;;;;;;4924608;29;20046;-50
2022/10/01 16:26:27;;;;;;;2.30;0.93;;;;;;;;;;4936537;29;20043;-49
2022/10/01 16:29:13;;;;;;;4.43;0.90;;;;;;;;;;4941246;28;20047;-51
2022/10/01 16:32:00;;;;;;;6.18;1.33;;;;;;;;;;4937942;29;20086;-51
2022/10/01 16:34:46;;;;;;;5.80;0.95;;;;;;;;;;4939435;29;20122;-51
2022/10/01 16:37:31;;;;;;;9.52;1.10;;;;;;;;;;4933880;29;20036;-49
2022/10/01 16:40:20;;;;;;;4.88;1.25;;;;;;;;;;4936661;29;20040;-52
2022/10/01 16:43:09;;;;;;;4.25;1.17;;;;;;;;;;4940444;29;20472;-50
2022/10/01 16:45:56;;;;;;;1.65;1.08;;;;;;;;;;4933731;29;20075;-48
2022/10/01 16:48:42;;;;;;;4.70;1.27;;;;;;;;;;4934996;28;20134;-50
2022/10/01 16:51:30;;;;;;;2.03;1.08;;;;;;;;;;4937245;29;20043;-47
2022/10/01 16:54:25;;;;;;;7.03;1.45;;;;;;;;;;4935649;28;20062;-49
2022/10/01 16:57:11;;;;;;;1.83;1.05;;;;;;;;;;4934427;29;20485;-48
2022/10/01 16:59:56;;;;;;;5.28;1.10;;;;;;;;;;4943626;28;20050;-52
2022/10/01 17:02:42;;;;;;;8.38;1.17;;;;;;;;;;4942941;29;20032;-50
2022/10/01 17:05:30;;;;;;;3.42;1.10;;;;;;;;;;4935318;29;20099;-49
2022/10/01 17:08:16;;;;;;;4.35;1.13;;;;;;;;;;4928764;29;20062;-50
2022/10/01 17:11:02;;;;;;;4.45;1.40;;;;;;;;;;4927627;29;20469;-53
2022/10/01 17:13:48;;;;;;;4.88;1.50;;;;;;;;;;4923847;29;20690;-51